Archival Weather

Chicago O'Hare International

Chicago, Illinois (KORD)

Report from: Wednesday, December 21, 2022 4:51 AM CST
Current time: Friday, June 21, 2024 3:54 AM CDT

Current weather – Weather history – Daily summaries
Weather forecast

Temperature-11.1°C (12.0°F)
Wind chill-17.5°C (0.5°F)
Dew point-15.0°C (5.0°F)
Winds 7 kts (3.6 m/s, 8.1 mph) North (350°)
Visibility10 mi. (16.1 km)
Clouds Few clouds 2,000 ft. (610 m)
Ceiling: Broken clouds 25,000 ft. (7,620 m)
Altimeter30.47 in.Hg (1032 mB)
Relative humidity73 %
Density altitude-3,910 ft. (-1,192 m)
Sea-level pressure103.3 kPa (1033 mB, 30.50 in.Hg)
Remarks Automated weather observing station with precipitation discriminator
Flight conditions Visual Meteorological Conditions
Raw dataKORD 211051Z 35007KT 10SM FEW020 BKN250 M11/M15 A3047 RMK AO2 SLP329 T11111150
An error has occurred. This application may no longer respond until reloaded. Reload 🗙